createdAt,value
2023-05-05T00:00:09.011Z,99582.23
2023-05-05T00:03:12.826Z,99581.14
2023-05-05T00:06:01.388Z,99579.39
2023-05-05T00:08:50.664Z,99579.39
2023-05-05T00:11:39.505Z,99582.23
2023-05-05T00:14:28.191Z,99584.92
2023-05-05T00:17:17.250Z,99583.06
2023-05-05T00:20:06.977Z,99579.23
2023-05-05T00:22:55.796Z,99579.88
2023-05-05T00:25:44.533Z,99578.17
2023-05-05T00:28:33.261Z,99576.16
2023-05-05T00:31:22.092Z,99574.02
2023-05-05T00:34:11.163Z,99570.83
2023-05-05T00:37:00.952Z,99568.34
2023-05-05T00:39:50.885Z,99569.29
2023-05-05T00:42:44.118Z,99564.39
2023-05-05T00:45:33.332Z,99567.88
2023-05-05T00:48:24.565Z,99557.88
2023-05-05T00:51:13.919Z,99556.70
2023-05-05T00:54:02.966Z,99558.52
2023-05-05T00:56:51.969Z,99554.54
2023-05-05T00:59:41.233Z,99553.23
2023-05-05T01:03:03.417Z,99555.29
2023-05-05T01:06:06.118Z,99560.06
2023-05-05T01:09:05.999Z,99555.79
2023-05-05T01:12:06.759Z,99558.02
2023-05-05T01:15:01.774Z,99552.52
2023-05-05T01:18:09.026Z,99552.53
2023-05-05T01:21:12.200Z,99553.98
2023-05-05T01:24:44.476Z,99558.41
2023-05-05T01:28:15.540Z,99556.02
2023-05-05T01:31:22.340Z,99554.72
2023-05-05T01:34:16.051Z,99552.48
2023-05-05T01:37:04.786Z,99550.96
2023-05-05T01:39:57.703Z,99550.48
2023-05-05T01:42:48.078Z,99549.30
2023-05-05T01:45:42.337Z,99546.58
2023-05-05T01:48:31.572Z,99547.72
2023-05-05T01:51:23.583Z,99549.52
2023-05-05T01:54:14.587Z,99551.76
2023-05-05T01:57:05.946Z,99552.64
2023-05-05T01:59:57.295Z,99543.70
2023-05-05T02:02:49.386Z,99548.92
2023-05-05T02:05:40.770Z,99544.75
2023-05-05T02:08:31.422Z,99544.88
2023-05-05T02:11:21.984Z,99552.38
2023-05-05T02:14:12.150Z,99550.21
2023-05-05T02:17:01.585Z,99550.95
2023-05-05T02:19:52.528Z,99546.83
2023-05-05T02:22:42.006Z,99543.13
2023-05-05T02:25:36.996Z,99545.33
2023-05-05T02:28:35.613Z,99539.34
2023-05-05T02:31:27.897Z,99535.33
2023-05-05T02:34:22.883Z,99534.04
2023-05-05T02:37:16.060Z,99533.52
2023-05-05T02:40:07.863Z,99531.73
2023-05-05T02:43:00.976Z,99533.17
2023-05-05T02:45:52.096Z,99529.38
2023-05-05T02:48:41.386Z,99527.30
2023-05-05T02:51:30.047Z,99526.46
2023-05-05T02:54:20.407Z,99530.05
2023-05-05T02:57:11.632Z,99527.85
2023-05-05T03:00:24.084Z,99534.41
2023-05-05T03:03:18.919Z,99527.02
2023-05-05T03:06:17.641Z,99521.62
2023-05-05T03:09:30.934Z,99519.11
2023-05-05T03:12:22.478Z,99515.89
2023-05-05T03:15:22.538Z,99514.81
2023-05-05T03:18:12.792Z,99514.39
2023-05-05T03:21:08.854Z,99515.05
2023-05-05T03:23:59.718Z,99523.77
2023-05-05T03:26:49.681Z,99524.08
2023-05-05T03:29:39.942Z,99523.09
2023-05-05T03:32:32.164Z,99528.55
2023-05-05T03:35:21.258Z,99529.99
2023-05-05T03:38:10.105Z,99535.38
2023-05-05T03:41:03.268Z,99538.05
2023-05-05T03:43:53.122Z,99542.61
2023-05-05T03:46:41.957Z,99540.16
2023-05-05T03:49:33.113Z,99542.77
2023-05-05T03:52:22.770Z,99545.88
2023-05-05T03:55:11.715Z,99545.35
2023-05-05T03:58:00.469Z,99543.19
2023-05-05T04:00:49.156Z,99546.16
2023-05-05T04:03:39.404Z,99543.70
2023-05-05T04:06:28.215Z,99545.70
2023-05-05T04:09:16.831Z,99548.29
2023-05-05T04:12:06.327Z,99546.48
2023-05-05T04:14:55.488Z,99544.84
2023-05-05T04:17:44.606Z,99543.88
2023-05-05T04:20:35.084Z,99542.99
2023-05-05T04:23:24.820Z,99542.23
2023-05-05T04:26:13.557Z,99542.66
2023-05-05T04:29:02.878Z,99539.38
2023-05-05T04:31:51.722Z,99547.03
2023-05-05T04:34:40.615Z,99545.05
2023-05-05T04:37:29.544Z,99549.59
2023-05-05T04:40:19.967Z,99551.57
2023-05-05T04:43:09.457Z,99552.99
2023-05-05T04:45:58.374Z,99552.40
2023-05-05T04:48:50.206Z,99556.80
2023-05-05T04:51:42.378Z,99555.48
2023-05-05T04:54:31.051Z,99557.40
2023-05-05T04:57:19.723Z,99559.52
2023-05-05T05:00:09.852Z,99561.16
2023-05-05T05:02:59.396Z,99566.58
2023-05-05T05:05:48.140Z,99570.91
2023-05-05T05:08:36.905Z,99574.68
2023-05-05T05:11:26.189Z,99580.89
2023-05-05T05:14:15.005Z,99585.30
2023-05-05T05:17:04.242Z,99589.85
2023-05-05T05:19:54.653Z,99595.30
2023-05-05T05:22:43.811Z,99595.38
2023-05-05T05:25:36.187Z,99591.72
2023-05-05T05:28:24.816Z,99595.80
2023-05-05T05:31:16.948Z,99594.80
2023-05-05T05:34:05.772Z,99595.45
2023-05-05T05:36:54.556Z,99594.05
2023-05-05T05:39:51.304Z,99594.85
2023-05-05T05:42:41.421Z,99594.85
2023-05-05T05:45:30.646Z,99596.46
2023-05-05T05:48:19.341Z,99597.35
2023-05-05T05:51:08.063Z,99598.08
2023-05-05T05:53:58.777Z,99597.55
2023-05-05T05:56:48.045Z,99593.34
2023-05-05T05:59:36.842Z,99594.91
2023-05-05T06:02:27.291Z,99591.20
2023-05-05T06:05:16.453Z,99592.81
2023-05-05T06:08:05.650Z,99586.66
2023-05-05T06:11:00.767Z,99586.23
2023-05-05T06:13:49.735Z,99583.64
2023-05-05T06:16:38.312Z,99582.70
2023-05-05T06:19:29.718Z,99586.75
2023-05-05T06:22:18.591Z,99595.27
2023-05-05T06:25:07.745Z,99599.96
2023-05-05T06:27:57.002Z,99600.98
2023-05-05T06:30:45.886Z,99603.36
2023-05-05T06:33:35.267Z,99609.47
2023-05-05T06:36:24.155Z,99609.64
2023-05-05T06:39:15.815Z,99615.52
2023-05-05T06:42:04.906Z,99614.08
2023-05-05T06:44:56.016Z,99611.23
2023-05-05T06:47:44.638Z,99612.50
2023-05-05T06:50:33.632Z,99613.78
2023-05-05T06:53:22.282Z,99609.41
2023-05-05T06:56:12.855Z,99608.11
2023-05-05T06:59:01.582Z,99607.15
2023-05-05T07:01:51.031Z,99607.14
2023-05-05T07:04:39.731Z,99605.27
2023-05-05T07:07:28.842Z,99607.85
2023-05-05T07:10:17.489Z,99606.81
2023-05-05T07:13:08.482Z,99607.11
2023-05-05T07:15:57.224Z,99605.64
2023-05-05T07:18:46.105Z,99605.05
2023-05-05T07:21:35.065Z,99602.55
2023-05-05T07:24:24.348Z,99610.84
2023-05-05T07:27:13.078Z,99611.42
2023-05-05T07:30:04.033Z,99607.40
2023-05-05T07:32:56.033Z,99614.73
2023-05-05T07:35:45.229Z,99614.27
2023-05-05T07:38:33.916Z,99613.60
2023-05-05T07:41:22.742Z,99607.23
2023-05-05T07:44:11.572Z,99607.45
2023-05-05T07:47:00.408Z,99605.80
2023-05-05T07:49:49.025Z,99606.95
2023-05-05T07:52:48.289Z,99608.39
2023-05-05T07:55:42.667Z,99606.17
2023-05-05T07:58:31.498Z,99612.59
2023-05-05T08:01:20.508Z,99614.75
2023-05-05T08:04:09.256Z,99616.14
2023-05-05T08:06:58.706Z,99618.02
2023-05-05T08:09:47.562Z,99618.86
2023-05-05T08:12:36.756Z,99614.23
2023-05-05T08:15:25.342Z,99617.43
2023-05-05T08:18:14.703Z,99617.50
2023-05-05T08:21:07.531Z,99613.74
2023-05-05T08:23:56.268Z,99616.73
2023-05-05T08:26:45.269Z,99617.35
2023-05-05T08:29:33.991Z,99616.07
2023-05-05T08:32:23.294Z,99615.32
2023-05-05T08:35:12.316Z,99615.27
2023-05-05T08:38:01.672Z,99612.85
2023-05-05T08:40:51.659Z,99615.48
2023-05-05T08:43:41.393Z,99611.73
2023-05-05T08:46:31.183Z,99611.65
2023-05-05T08:49:21.989Z,99609.41
2023-05-05T08:52:13.751Z,99607.48
2023-05-05T08:55:14.579Z,99609.09
2023-05-05T08:58:06.218Z,99607.90
2023-05-05T09:00:56.615Z,99606.37
2023-05-05T09:03:46.511Z,99607.25
2023-05-05T09:06:37.547Z,99605.92
2023-05-05T09:09:27.810Z,99603.05
2023-05-05T09:12:18.660Z,99605.30
2023-05-05T09:15:11.774Z,99612.23
2023-05-05T09:18:01.939Z,99605.09
2023-05-05T09:20:50.526Z,99603.83
2023-05-05T09:23:39.220Z,99604.04
2023-05-05T09:26:32.857Z,99602.27
2023-05-05T09:29:23.348Z,99601.87
2023-05-05T09:32:12.497Z,99604.31
2023-05-05T09:35:01.859Z,99602.68
2023-05-05T09:37:50.497Z,99604.30
2023-05-05T09:40:50.525Z,99604.10
2023-05-05T09:43:52.500Z,99603.63
2023-05-05T09:46:51.174Z,99600.45
2023-05-05T09:49:39.879Z,99601.04
2023-05-05T09:52:29.668Z,99599.92
2023-05-05T09:55:18.356Z,99598.98
2023-05-05T09:58:24.757Z,99602.59
2023-05-05T10:01:23.714Z,99600.33
2023-05-05T10:04:31.335Z,99595.39
2023-05-05T10:07:24.671Z,99595.36
2023-05-05T10:10:18.634Z,99590.04
2023-05-05T10:13:07.451Z,99589.70
2023-05-05T10:15:58.012Z,99591.98
2023-05-05T10:18:47.545Z,99590.57
2023-05-05T10:21:41.938Z,99586.96
2023-05-05T10:24:43.122Z,99588.17
2023-05-05T10:27:39.787Z,99578.11
2023-05-05T10:30:32.766Z,99574.52
2023-05-05T10:33:33.957Z,99570.34
2023-05-05T10:36:24.699Z,99570.55
2023-05-05T10:39:15.398Z,99574.36
2023-05-05T10:42:04.049Z,99571.52
2023-05-05T10:44:54.168Z,99572.46
2023-05-05T10:47:44.588Z,99570.58
2023-05-05T10:50:39.219Z,99561.38
2023-05-05T10:53:42.988Z,99553.66
2023-05-05T10:56:34.187Z,99560.91
2023-05-05T10:59:37.966Z,99560.05
2023-05-05T11:02:29.416Z,99555.97
2023-05-05T11:05:21.107Z,99553.41
2023-05-05T11:08:27.612Z,99551.65
2023-05-05T11:11:16.366Z,99547.98
2023-05-05T11:14:19.977Z,99546.23
2023-05-05T11:17:54.667Z,99539.88
2023-05-05T11:20:44.642Z,99540.05
2023-05-05T11:23:34.105Z,99538.20
2023-05-05T11:26:51.573Z,99540.44
2023-05-05T11:30:09.066Z,99541.00
2023-05-05T11:33:26.587Z,99543.93
2023-05-05T11:36:17.883Z,99539.41
2023-05-05T11:39:23.189Z,99537.64
2023-05-05T11:42:27.224Z,99539.48
2023-05-05T11:45:23.634Z,99539.97
2023-05-05T11:48:46.169Z,99535.85
2023-05-05T11:51:35.235Z,99534.08
2023-05-05T11:54:25.671Z,99538.17
2023-05-05T11:57:15.701Z,99533.73
2023-05-05T12:00:08.208Z,99529.73
2023-05-05T12:02:57.970Z,99530.23
2023-05-05T12:05:48.786Z,99522.83
2023-05-05T12:08:41.394Z,99520.69
2023-05-05T12:11:30.005Z,99515.65
2023-05-05T12:14:19.075Z,99516.64
2023-05-05T12:17:08.591Z,99516.90
2023-05-05T12:19:57.235Z,99510.39
2023-05-05T12:22:46.074Z,99507.37
2023-05-05T12:25:36.725Z,99509.48
2023-05-05T12:28:25.208Z,99509.38
2023-05-05T12:31:14.307Z,99512.17
2023-05-05T12:34:04.832Z,99507.38
2023-05-05T12:36:53.854Z,99500.58
2023-05-05T12:39:42.733Z,99495.98
2023-05-05T12:42:31.705Z,99498.70
2023-05-05T12:45:20.336Z,99503.10
2023-05-05T12:48:22.712Z,99505.06
2023-05-05T12:51:16.218Z,99502.20
2023-05-05T12:54:05.974Z,99500.64
2023-05-05T12:56:56.325Z,99502.14
2023-05-05T12:59:45.136Z,99496.92
2023-05-05T13:02:35.174Z,99492.71
2023-05-05T13:05:34.597Z,99488.95
2023-05-05T13:08:23.328Z,99482.95
2023-05-05T13:11:12.374Z,99483.95
2023-05-05T13:14:01.101Z,99480.38
2023-05-05T13:16:50.450Z,99481.64
2023-05-05T13:19:46.184Z,99474.60
2023-05-05T13:22:35.140Z,99472.48
2023-05-05T13:25:23.748Z,99474.03
2023-05-05T13:28:12.544Z,99471.94
2023-05-05T13:31:01.220Z,99467.18
2023-05-05T13:33:49.840Z,99463.74
2023-05-05T13:36:38.540Z,99461.89
2023-05-05T13:39:27.201Z,99459.20
2023-05-05T13:42:15.896Z,99461.52
2023-05-05T13:45:05.715Z,99458.21
2023-05-05T13:47:57.274Z,99457.12
2023-05-05T13:50:46.177Z,99455.80
2023-05-05T13:53:35.929Z,99451.77
2023-05-05T13:56:26.398Z,99453.08
2023-05-05T13:59:15.113Z,99441.79
2023-05-05T14:02:04.229Z,99440.98
2023-05-05T14:04:52.925Z,99439.65
2023-05-05T14:07:41.882Z,99435.41
2023-05-05T14:10:31.157Z,99434.77
2023-05-05T14:13:19.987Z,99432.39
2023-05-05T14:16:08.579Z,99434.36
2023-05-05T14:18:57.248Z,99437.14
2023-05-05T14:21:46.292Z,99439.79
2023-05-05T14:24:34.958Z,99440.05
2023-05-05T14:27:23.538Z,99440.73
2023-05-05T14:30:12.673Z,99439.64
2023-05-05T14:33:01.463Z,99437.29
2023-05-05T14:35:50.569Z,99438.23
2023-05-05T14:38:39.150Z,99437.02
2023-05-05T14:41:28.066Z,99438.77
2023-05-05T14:44:16.784Z,99441.13
2023-05-05T14:47:05.831Z,99438.00
2023-05-05T14:49:54.352Z,99439.66
2023-05-05T14:52:44.740Z,99438.92
2023-05-05T14:55:33.503Z,99436.71
2023-05-05T14:58:24.814Z,99438.35
2023-05-05T15:01:13.428Z,99435.27
2023-05-05T15:04:02.641Z,99436.25
2023-05-05T15:06:51.289Z,99432.25
2023-05-05T15:09:39.886Z,99429.69
2023-05-05T15:12:29.095Z,99430.38
2023-05-05T15:15:17.914Z,99430.68
2023-05-05T15:18:06.843Z,99429.73
2023-05-05T15:20:55.571Z,99425.28
2023-05-05T15:23:44.463Z,99430.41
2023-05-05T15:26:33.552Z,99430.51
2023-05-05T15:29:22.114Z,99426.06
2023-05-05T15:32:11.504Z,99420.91
2023-05-05T15:35:00.182Z,99421.03
2023-05-05T15:37:54.451Z,99423.17
2023-05-05T15:40:44.911Z,99423.16
2023-05-05T15:43:34.373Z,99427.73
2023-05-05T15:46:23.379Z,99429.34
2023-05-05T15:49:12.320Z,99422.63
2023-05-05T15:52:00.921Z,99417.67
2023-05-05T15:54:49.893Z,99418.64
2023-05-05T15:57:40.520Z,99417.89
2023-05-05T16:00:29.857Z,99426.44
2023-05-05T16:03:18.793Z,99425.69
2023-05-05T16:06:08.086Z,99423.05
2023-05-05T16:08:58.693Z,99425.99
2023-05-05T16:11:47.919Z,99426.59
2023-05-05T16:14:37.295Z,99426.70
2023-05-05T16:17:25.990Z,99427.52
2023-05-05T16:20:14.545Z,99425.92
2023-05-05T16:23:03.347Z,99427.16
2023-05-05T16:25:52.036Z,99422.95
2023-05-05T16:28:40.760Z,99430.46
2023-05-05T16:31:29.245Z,99435.58
2023-05-05T16:34:18.026Z,99435.23
2023-05-05T16:37:06.656Z,99434.13
2023-05-05T16:39:56.072Z,99436.10
2023-05-05T16:42:44.775Z,99436.31
2023-05-05T16:45:33.843Z,99435.20
2023-05-05T16:48:22.917Z,99435.77
2023-05-05T16:51:11.933Z,99432.52
2023-05-05T16:54:01.766Z,99439.19
2023-05-05T16:56:51.156Z,99441.80
2023-05-05T16:59:41.765Z,99439.48
2023-05-05T17:02:30.879Z,99441.17
2023-05-05T17:05:19.911Z,99439.17
2023-05-05T17:08:11.434Z,99441.02
2023-05-05T17:11:00.064Z,99447.36
2023-05-05T17:13:48.714Z,99447.30
2023-05-05T17:16:37.719Z,99450.14
2023-05-05T17:19:27.066Z,99450.38
2023-05-05T17:22:15.630Z,99453.33
2023-05-05T17:25:06.084Z,99452.85
2023-05-05T17:27:55.573Z,99454.17
2023-05-05T17:30:44.965Z,99457.75
2023-05-05T17:33:33.615Z,99462.11
2023-05-05T17:36:22.803Z,99462.34
2023-05-05T17:39:11.552Z,99461.27
2023-05-05T17:42:00.301Z,99459.06
2023-05-05T17:44:50.166Z,99466.94
2023-05-05T17:47:38.991Z,99465.80
2023-05-05T17:50:32.648Z,99468.16
2023-05-05T17:53:23.530Z,99471.70
2023-05-05T17:56:12.277Z,99470.35
2023-05-05T17:59:03.240Z,99464.77
2023-05-05T18:01:51.875Z,99466.64
2023-05-05T18:04:40.699Z,99463.90
2023-05-05T18:07:29.232Z,99464.52
2023-05-05T18:10:18.225Z,99467.45
2023-05-05T18:13:08.006Z,99467.02
2023-05-05T18:15:57.066Z,99471.55
2023-05-05T18:18:45.898Z,99471.97
2023-05-05T18:21:34.699Z,99472.90
2023-05-05T18:24:23.512Z,99479.37
2023-05-05T18:27:12.496Z,99482.28
2023-05-05T18:30:01.495Z,99486.89
2023-05-05T18:32:50.482Z,99489.69
2023-05-05T18:35:39.062Z,99497.32
2023-05-05T18:38:27.740Z,99498.32
2023-05-05T18:41:16.418Z,99507.35
2023-05-05T18:44:05.177Z,99508.53
2023-05-05T18:46:53.770Z,99514.66
2023-05-05T18:49:42.547Z,99516.74
2023-05-05T18:52:31.098Z,99516.23
2023-05-05T18:55:19.899Z,99512.00
2023-05-05T18:58:09.395Z,99516.39
2023-05-05T19:00:58.473Z,99517.65
2023-05-05T19:03:48.216Z,99515.55
2023-05-05T19:06:38.578Z,99513.39
2023-05-05T19:09:27.597Z,99513.17
2023-05-05T19:12:16.716Z,99513.62
2023-05-05T19:15:06.964Z,99514.02
2023-05-05T19:17:56.151Z,99515.10
2023-05-05T19:20:44.656Z,99513.53
2023-05-05T19:23:33.434Z,99513.70
2023-05-05T19:26:24.450Z,99511.69
2023-05-05T19:29:13.289Z,99509.08
2023-05-05T19:32:02.077Z,99509.52
2023-05-05T19:34:54.471Z,99511.38
2023-05-05T19:37:42.983Z,99514.56
2023-05-05T19:40:31.651Z,99512.21
2023-05-05T19:43:20.274Z,99513.27
2023-05-05T19:46:09.066Z,99512.89
2023-05-05T19:48:57.799Z,99513.92
2023-05-05T19:51:49.847Z,99511.14
2023-05-05T19:54:38.415Z,99514.37
2023-05-05T19:57:27.603Z,99518.80
2023-05-05T20:00:16.480Z,99518.90
2023-05-05T20:03:05.446Z,99531.20
2023-05-05T20:05:54.025Z,99527.73
2023-05-05T20:08:42.599Z,99529.96
2023-05-05T20:11:31.315Z,99531.17
2023-05-05T20:14:20.049Z,99532.36
2023-05-05T20:17:08.800Z,99528.28
2023-05-05T20:19:57.831Z,99527.66
2023-05-05T20:22:47.742Z,99526.92
2023-05-05T20:25:37.273Z,99527.59
2023-05-05T20:28:25.876Z,99527.02
2023-05-05T20:31:15.245Z,99526.73
2023-05-05T20:34:03.882Z,99521.15
2023-05-05T20:36:52.811Z,99524.28
2023-05-05T20:39:42.406Z,99526.57
2023-05-05T20:42:31.468Z,99518.02
2023-05-05T20:45:20.138Z,99518.23
2023-05-05T20:48:11.525Z,99518.89
2023-05-05T20:51:03.960Z,99517.25
2023-05-05T20:53:52.820Z,99517.89
2023-05-05T20:56:41.357Z,99524.70
2023-05-05T20:59:30.253Z,99522.94
2023-05-05T21:02:19.002Z,99519.37
2023-05-05T21:05:08.095Z,99517.37
2023-05-05T21:07:58.372Z,99519.63
2023-05-05T21:10:48.771Z,99522.21
2023-05-05T21:13:37.241Z,99517.38
2023-05-05T21:16:25.928Z,99515.78
2023-05-05T21:19:14.842Z,99515.78
2023-05-05T21:22:04.481Z,99516.34
2023-05-05T21:24:53.862Z,99515.52
2023-05-05T21:27:42.685Z,99511.62
2023-05-05T21:30:31.257Z,99509.87
2023-05-05T21:33:20.112Z,99507.39
2023-05-05T21:36:09.026Z,99512.09
2023-05-05T21:38:59.789Z,99510.30
2023-05-05T21:41:49.340Z,99510.48
2023-05-05T21:44:38.182Z,99511.01
2023-05-05T21:47:27.298Z,99504.26
2023-05-05T21:50:16.417Z,99510.10
2023-05-05T21:53:04.978Z,99508.59
2023-05-05T21:55:53.806Z,99508.50
2023-05-05T21:58:42.337Z,99501.42
2023-05-05T22:01:31.485Z,99500.55
2023-05-05T22:04:21.297Z,99498.32
2023-05-05T22:07:12.658Z,99495.48
2023-05-05T22:10:03.503Z,99493.80
2023-05-05T22:12:52.238Z,99494.95
2023-05-05T22:15:46.705Z,99489.27
2023-05-05T22:18:36.458Z,99483.34
2023-05-05T22:21:25.033Z,99480.04
2023-05-05T22:24:13.635Z,99485.63
2023-05-05T22:27:02.186Z,99482.91
2023-05-05T22:29:51.018Z,99480.88
2023-05-05T22:32:39.824Z,99487.46
2023-05-05T22:35:29.157Z,99485.52
2023-05-05T22:38:17.844Z,99485.31
2023-05-05T22:41:07.302Z,99477.78
2023-05-05T22:43:56.262Z,99475.14
2023-05-05T22:46:45.081Z,99470.94
2023-05-05T22:49:33.826Z,99464.67
2023-05-05T22:52:22.616Z,99475.41
2023-05-05T22:55:14.008Z,99472.41
2023-05-05T22:58:02.801Z,99472.11
2023-05-05T23:00:51.387Z,99471.87
2023-05-05T23:03:40.310Z,99469.55
2023-05-05T23:06:29.137Z,99470.85
2023-05-05T23:09:18.036Z,99472.10
2023-05-05T23:12:06.796Z,99474.14
2023-05-05T23:14:55.849Z,99465.49
2023-05-05T23:17:44.378Z,99463.19
2023-05-05T23:20:33.293Z,99463.30
2023-05-05T23:23:22.843Z,99460.67
2023-05-05T23:26:13.703Z,99460.35
2023-05-05T23:29:02.414Z,99457.48
2023-05-05T23:31:51.100Z,99453.72
2023-05-05T23:34:39.606Z,99449.89
2023-05-05T23:37:28.522Z,99446.20
2023-05-05T23:40:17.211Z,99446.98
2023-05-05T23:43:05.998Z,99449.37
2023-05-05T23:45:54.602Z,99443.31
2023-05-05T23:48:43.913Z,99444.33
2023-05-05T23:51:32.476Z,99440.73
2023-05-05T23:54:21.244Z,99435.11
2023-05-05T23:57:09.847Z,99439.83
2023-05-05T23:59:58.623Z,99441.48
